Time;durP1;ratioP1;P1;durP2;ratioP2;P2;SDS_P1;SDS_P2;PMS_P1;PMS_P2;Temp;Humidity;BMP_temperature;BMP_pressure;BME280_temperature;BME280_humidity;BME280_pressure;Samples;Min_cycle;Max_cycle;Signal;HPM_P1;HPM_P2
2022/10/03 00:01:56;;;;;;;10.00;7.73;;;;;;;9.94;100.00;99953.34;5069600;27;20269;-81
2022/10/03 00:04:49;;;;;;;15.07;8.87;;;;;;;9.70;100.00;99955.38;5074739;27;20192;-81
2022/10/03 00:07:35;;;;;;;10.53;7.93;;;;;;;9.54;100.00;99958.81;5110377;28;20199;-81
2022/10/03 00:10:16;;;;;;;15.70;9.27;;;;;;;9.79;100.00;99964.66;5112359;28;20231;-81
2022/10/03 00:13:04;;;;;;;16.33;9.97;;;;;;;9.93;100.00;99969.28;5107048;28;20235;-81
2022/10/03 00:15:39;;;;;;;17.83;10.03;;;;;;;9.73;100.00;99972.88;5035231;28;20784;-81
2022/10/03 00:18:22;;;;;;;17.77;10.30;;;;;;;9.73;100.00;99964.94;5032705;28;20201;-81
2022/10/03 00:21:10;;;;;;;17.00;10.40;;;;;;;9.79;100.00;99966.44;5026984;28;20200;-81
2022/10/03 00:23:49;;;;;;;15.03;10.27;;;;;;;9.87;100.00;99980.16;5029170;28;20232;-82
2022/10/03 00:26:29;;;;;;;18.47;10.97;;;;;;;9.86;100.00;99970.53;4980413;28;20232;-81
2022/10/03 00:29:25;;;;;;;17.87;11.10;;;;;;;9.91;100.00;99985.22;4969171;28;20743;-81
2022/10/03 00:32:05;;;;;;;20.07;10.33;;;;;;;10.01;100.00;99981.19;4975792;28;20195;-81
2022/10/03 00:34:52;;;;;;;19.13;11.60;;;;;;;9.80;100.00;99978.75;4971228;28;20224;-81
2022/10/03 00:37:27;;;;;;;16.80;10.43;;;;;;;9.79;100.00;99982.31;4969814;28;20220;-81
2022/10/03 00:40:32;;;;;;;16.87;9.63;;;;;;;9.51;100.00;99994.19;5010453;28;20204;-82
2022/10/03 00:43:26;;;;;;;22.43;8.40;;;;;;;9.38;100.00;99987.75;5065406;28;20228;-81
2022/10/03 00:46:24;;;;;;;73.60;11.07;;;;;;;9.23;100.00;99989.28;5071083;28;20197;-81
2022/10/03 00:49:21;;;;;;;38.50;9.53;;;;;;;9.13;100.00;99988.00;5070740;28;20213;-81
2022/10/03 00:52:05;;;;;;;17.87;8.80;;;;;;;8.95;100.00;99994.94;5071933;28;20196;-81
2022/10/03 00:54:52;;;;;;;14.77;8.80;;;;;;;9.03;100.00;99982.25;5066894;28;20185;-81
2022/10/03 00:57:37;;;;;;;15.70;9.97;;;;;;;9.15;100.00;99983.50;5068506;28;20256;-81
2022/10/03 01:00:18;;;;;;;18.00;10.53;;;;;;;9.30;100.00;99992.53;5067661;28;20189;-81
2022/10/03 01:03:25;;;;;;;13.77;10.20;;;;;;;9.26;100.00;99986.50;5061126;27;20262;-81
2022/10/03 01:06:18;;;;;;;15.73;9.50;;;;;;;9.35;100.00;99996.66;5063476;28;20222;-81
2022/10/03 01:09:24;;;;;;;12.13;9.10;;;;;;;9.27;100.00;99998.81;5065701;28;20248;-81
2022/10/03 01:12:07;;;;;;;10.80;8.93;;;;;;;9.43;100.00;100009.53;5066235;28;20223;-81
2022/10/03 01:14:59;;;;;;;14.93;8.10;;;;;;;9.33;100.00;100003.81;5071202;28;20193;-81
2022/10/03 01:17:36;;;;;;;11.80;8.23;;;;;;;9.14;100.00;100005.56;4990730;28;20250;-82
2022/10/03 01:20:22;;;;;;;10.03;7.17;;;;;;;9.05;100.00;100000.69;4987039;28;20206;-82
2022/10/03 01:23:22;;;;;;;12.30;8.20;;;;;;;8.93;100.00;100015.31;4985069;28;20233;-82
2022/10/03 01:25:56;;;;;;;11.63;7.53;;;;;;;8.88;100.00;100014.66;4992358;28;20681;-82
2022/10/03 01:31:50;;;;;;;10.90;7.80;;;;;;;8.79;100.00;100008.00;4920696;28;20289;-81
2022/10/03 01:34:26;;;;;;;13.57;8.37;;;;;;;8.86;100.00;100009.41;5022854;28;20211;-81
2022/10/03 01:37:05;;;;;;;12.57;9.37;;;;;;;9.13;100.00;100003.84;5044431;28;20243;-81
2022/10/03 01:39:47;;;;;;;13.30;8.87;;;;;;;9.27;100.00;100016.47;5067014;28;20203;-81
2022/10/03 01:42:30;;;;;;;11.20;8.27;;;;;;;9.14;100.00;100003.78;5063856;28;20195;-81
2022/10/03 01:45:13;;;;;;;12.23;8.90;;;;;;;9.17;100.00;100011.59;5070544;28;20224;-81
2022/10/03 01:47:50;;;;;;;12.83;8.83;;;;;;;9.09;100.00;100007.56;5086872;28;20349;-81
2022/10/03 01:50:28;;;;;;;38.30;10.60;;;;;;;9.13;100.00;100010.00;5081531;28;20224;-81
2022/10/03 01:53:03;;;;;;;61.53;12.43;;;;;;;8.85;100.00;100014.78;5052304;28;20270;-81
2022/10/03 01:55:43;;;;;;;45.63;10.90;;;;;;;8.85;100.00;100028.84;5049320;28;20612;-81
2022/10/03 01:58:19;;;;;;;25.33;10.37;;;;;;;8.85;100.00;100028.84;5046003;28;20196;-81
2022/10/03 02:00:58;;;;;;;30.80;10.33;;;;;;;8.78;100.00;100022.13;5049224;28;20195;-81
2022/10/03 02:03:32;;;;;;;48.97;11.53;;;;;;;8.66;100.00;100029.69;5048747;28;20200;-81
2022/10/03 02:06:07;;;;;;;25.50;10.20;;;;;;;8.63;100.00;100045.66;5030674;28;20247;-81
2022/10/03 02:08:53;;;;;;;21.90;9.10;;;;;;;8.62;100.00;100047.44;5027603;28;20231;-81
2022/10/03 02:11:32;;;;;;;16.37;9.77;;;;;;;8.69;100.00;100056.84;5037426;28;20278;-81
2022/10/03 02:14:24;;;;;;;15.70;10.10;;;;;;;8.70;100.00;100042.72;5031794;28;20200;-81
2022/10/03 02:17:01;;;;;;;13.03;9.33;;;;;;;8.67;100.00;100060.44;4979198;28;20223;-82
2022/10/03 02:19:38;;;;;;;13.77;10.20;;;;;;;8.65;100.00;100057.88;4968630;28;20215;-81
2022/10/03 02:22:15;;;;;;;15.37;10.17;;;;;;;8.57;100.00;100062.59;4966614;28;20254;-81
2022/10/03 02:24:54;;;;;;;17.37;9.70;;;;;;;8.46;100.00;100072.75;4992585;28;20244;-81
2022/10/03 02:28:09;;;;;;;17.80;9.50;;;;;;;8.47;100.00;100071.84;5009753;28;20214;-82
2022/10/03 02:30:53;;;;;;;14.93;9.33;;;;;;;8.40;100.00;100065.09;5005372;28;20217;-81
2022/10/03 02:34:02;;;;;;;14.27;9.50;;;;;;;8.30;100.00;100059.31;5007656;28;20233;-81
2022/10/03 02:37:21;;;;;;;38.50;10.03;;;;;;;8.17;100.00;100064.19;5060648;28;20216;-81
2022/10/03 02:40:16;;;;;;;16.17;8.77;;;;;;;8.33;100.00;100069.72;4984578;28;20376;-82
2022/10/03 02:43:18;;;;;;;29.57;9.17;;;;;;;8.17;100.00;100065.97;4988861;28;20244;-81
2022/10/03 02:46:19;;;;;;;13.83;7.77;;;;;;;8.11;100.00;100077.66;5061610;28;20200;-82
2022/10/03 02:49:21;;;;;;;13.20;7.77;;;;;;;8.10;100.00;100075.03;5061251;28;20196;-81
2022/10/03 02:52:25;;;;;;;9.80;6.77;;;;;;;8.06;100.00;100066.41;5055208;28;20229;-81
2022/10/03 02:55:07;;;;;;;18.73;8.03;;;;;;;7.89;100.00;100069.69;5063207;28;20229;-82
2022/10/03 02:58:06;;;;;;;8.27;7.47;;;;;;;7.90;100.00;100066.13;5064132;28;20216;-82
2022/10/03 03:01:11;;;;;;;18.43;7.70;;;;;;;7.92;100.00;100074.88;5067635;28;20193;-81
2022/10/03 03:04:18;;;;;;;9.27;7.53;;;;;;;7.91;100.00;100065.22;5066806;28;20200;-81
2022/10/03 03:07:18;;;;;;;33.17;8.30;;;;;;;7.87;100.00;100074.16;5067996;28;20220;-81
2022/10/03 03:10:07;;;;;;;39.23;9.30;;;;;;;7.71;100.00;100078.28;5069129;28;20203;-81
2022/10/03 03:13:08;;;;;;;29.30;8.37;;;;;;;7.60;100.00;100075.19;5068477;28;20220;-80
2022/10/03 03:16:12;;;;;;;34.33;8.77;;;;;;;7.64;100.00;100082.94;5066213;28;20229;-81
2022/10/03 03:18:46;;;;;;;32.47;8.97;;;;;;;7.74;100.00;100086.97;5055021;28;20271;-81
2022/10/03 03:21:35;;;;;;;32.43;9.10;;;;;;;7.81;100.00;100092.00;5066198;28;20406;-81
2022/10/03 03:24:22;;;;;;;33.63;8.67;;;;;;;7.86;100.00;100087.41;5069707;28;20260;-83
2022/10/03 03:27:01;;;;;;;13.73;8.03;;;;;;;8.01;100.00;100095.63;5064378;28;20251;-82
2022/10/03 03:29:39;;;;;;;13.60;7.97;;;;;;;7.99;100.00;100097.44;5065620;28;20192;-81
2022/10/03 03:32:21;;;;;;;9.07;7.50;;;;;;;8.07;100.00;100093.63;5065750;28;20224;-81
2022/10/03 03:35:03;;;;;;;13.40;8.30;;;;;;;8.04;100.00;100103.41;5066728;28;20245;-81
2022/10/03 03:37:39;;;;;;;8.93;8.00;;;;;;;7.96;100.00;100099.34;5066167;28;20216;-82
2022/10/03 03:40:31;;;;;;;12.20;8.30;;;;;;;7.91;100.00;100109.19;5070049;28;20224;-81
2022/10/03 03:43:33;;;;;;;10.13;8.70;;;;;;;8.09;100.00;100105.84;5061789;28;20230;-81
2022/10/03 03:46:19;;;;;;;10.07;7.90;;;;;;;8.04;100.00;100103.41;5066062;28;20241;-82
2022/10/03 03:49:33;;;;;;;9.83;7.73;;;;;;;8.07;100.00;100105.06;5067460;28;20237;-81
2022/10/03 03:52:18;;;;;;;10.37;7.90;;;;;;;8.14;100.00;100121.53;5023502;28;20196;-81
2022/10/03 03:55:08;;;;;;;12.03;8.50;;;;;;;8.17;100.00;100114.31;5067072;28;20269;-82
2022/10/03 03:58:02;;;;;;;14.97;8.20;;;;;;;8.37;100.00;100104.81;5064859;28;20521;-81
2022/10/03 04:00:46;;;;;;;11.00;7.57;;;;;;;8.22;100.00;100104.47;5067585;28;20659;-81
2022/10/03 04:06:34;;;;;;;10.60;7.07;;;;;;;8.06;100.00;100090.16;5132109;27;20540;-82
2022/10/03 04:09:20;;;;;;;9.83;6.97;;;;;;;8.03;100.00;100093.78;5136916;27;20197;-82
2022/10/03 04:12:28;;;;;;;9.00;6.90;;;;;;;8.13;100.00;100099.56;5126116;27;20248;-82
2022/10/03 04:15:33;;;;;;;8.30;7.00;;;;;;;8.18;100.00;100102.84;5131704;27;20266;-82
2022/10/03 04:21:53;;;;;;;9.13;8.20;;;;;;;8.15;100.00;100099.47;5133859;27;20194;-83
2022/10/03 04:24:45;;;;;;;7.23;5.87;;;;;;;7.83;100.00;100104.22;5127753;27;20210;-82
2022/10/03 04:27:41;;;;;;;7.03;5.30;;;;;;;7.84;100.00;100103.31;5124858;28;20204;-82
2022/10/03 04:30:14;;;;;;;7.03;5.37;;;;;;;7.80;100.00;100104.31;5128606;27;20186;-81
2022/10/03 04:32:56;;;;;;;5.87;4.80;;;;;;;7.72;100.00;100107.25;5131024;27;20264;-82
2022/10/03 04:35:54;;;;;;;4.33;3.93;;;;;;;7.73;100.00;100102.84;5131946;27;20229;-82
2022/10/03 04:38:39;;;;;;;6.53;4.60;;;;;;;7.89;100.00;100098.69;5128895;27;20190;-82
2022/10/03 04:41:22;;;;;;;6.00;4.87;;;;;;;7.73;100.00;100101.06;5126364;27;20251;-82
2022/10/03 04:44:00;;;;;;;6.03;4.10;;;;;;;7.84;100.00;100090.13;5125145;27;20222;-82
2022/10/03 04:46:38;;;;;;;6.03;5.07;;;;;;;8.03;100.00;100096.41;5084125;28;20215;-82
2022/10/03 04:49:18;;;;;;;7.90;5.03;;;;;;;8.05;100.00;100093.69;5082182;28;20207;-82
2022/10/03 04:51:57;;;;;;;10.83;6.50;;;;;;;8.17;100.00;100093.22;5081413;28;20215;-82
2022/10/03 04:54:42;;;;;;;6.00;4.70;;;;;;;7.83;100.00;100088.41;5052748;28;20195;-82
2022/10/03 04:57:26;;;;;;;5.30;4.80;;;;;;;7.73;100.00;100084.38;5082072;28;20192;-82
2022/10/03 05:00:04;;;;;;;5.20;4.70;;;;;;;7.83;100.00;100088.41;5083646;28;20200;-82
2022/10/03 05:02:46;;;;;;;5.67;5.07;;;;;;;7.79;100.00;100091.19;5077645;28;20650;-82
2022/10/03 05:05:40;;;;;;;5.43;4.83;;;;;;;7.92;100.00;100093.31;5112102;27;20279;-82
2022/10/03 05:08:19;;;;;;;6.50;5.03;;;;;;;8.05;100.00;100091.06;5127702;27;20247;-82
2022/10/03 05:10:59;;;;;;;8.03;5.20;;;;;;;8.10;100.00;100088.22;5130828;27;20247;-82
2022/10/03 05:13:47;;;;;;;6.43;4.97;;;;;;;8.10;100.00;100104.94;5124072;27;20273;-82
2022/10/03 05:16:22;;;;;;;4.80;4.33;;;;;;;8.03;100.00;100098.19;5121912;28;20191;-82
2022/10/03 05:18:57;;;;;;;6.50;5.17;;;;;;;7.97;100.00;100099.28;5113577;28;20198;-82
2022/10/03 05:21:37;;;;;;;6.73;5.00;;;;;;;8.10;100.00;100093.50;5113952;28;20186;-82
2022/10/03 05:24:19;;;;;;;8.70;6.40;;;;;;;8.17;100.00;100098.50;5113472;28;20281;-82
2022/10/03 05:26:57;;;;;;;9.00;7.33;;;;;;;8.30;100.00;100105.03;5108931;28;20223;-82
2022/10/03 05:29:38;;;;;;;13.47;7.70;;;;;;;8.54;100.00;100107.63;5110009;28;20707;-82
2022/10/03 05:32:18;;;;;;;13.40;9.00;;;;;;;8.68;100.00;100100.00;5072716;28;20643;-82
2022/10/03 05:35:03;;;;;;;13.77;9.17;;;;;;;8.87;100.00;100111.53;5069208;28;20215;-82
2022/10/03 05:38:03;;;;;;;18.10;8.93;;;;;;;8.83;100.00;100111.72;5076535;28;20290;-82
2022/10/03 05:40:35;;;;;;;14.60;8.23;;;;;;;8.84;100.00;100111.66;5085578;28;20200;-82
2022/10/03 05:43:19;;;;;;;15.30;8.00;;;;;;;8.86;100.00;100124.81;5074293;28;20189;-83
2022/10/03 05:46:01;;;;;;;14.57;8.73;;;;;;;8.84;100.00;100119.59;5072397;28;20216;-82
2022/10/03 05:48:44;;;;;;;13.27;9.10;;;;;;;8.73;100.00;100126.25;5071665;28;20192;-82
2022/10/03 05:51:41;;;;;;;14.83;9.00;;;;;;;8.80;100.00;100133.00;5101424;28;20203;-82
2022/10/03 05:54:50;;;;;;;14.73;8.73;;;;;;;8.76;100.00;100131.38;5112391;28;20209;-82
2022/10/03 05:58:04;;;;;;;13.40;8.70;;;;;;;8.61;100.00;100132.88;5108937;28;20191;-82
2022/10/03 06:00:53;;;;;;;16.77;8.80;;;;;;;8.68;100.00;100129.03;5106100;28;20240;-82
2022/10/03 06:03:55;;;;;;;17.50;8.60;;;;;;;8.59;100.00;100134.72;5111594;28;20704;-82
2022/10/03 06:06:42;;;;;;;12.87;8.20;;;;;;;8.71;100.00;100133.38;5112386;28;20256;-82
2022/10/03 06:09:39;;;;;;;13.03;8.80;;;;;;;8.60;100.00;100137.31;5114243;28;20669;-82
2022/10/03 06:12:13;;;;;;;16.27;8.97;;;;;;;8.68;100.00;100138.75;5055259;28;20225;-82
2022/10/03 06:15:07;;;;;;;14.47;9.00;;;;;;;8.73;100.00;100150.00;5045610;28;20197;-82
2022/10/03 06:17:56;;;;;;;18.87;8.30;;;;;;;8.59;100.00;100148.78;5017224;28;20197;-82
2022/10/03 06:21:05;;;;;;;13.07;7.43;;;;;;;8.81;100.00;100151.41;4993321;28;20203;-82
2022/10/03 06:24:07;;;;;;;9.47;7.03;;;;;;;8.71;100.00;100155.34;4993290;28;20294;-82
2022/10/03 06:27:04;;;;;;;12.70;7.43;;;;;;;8.51;100.00;100152.66;4992588;28;20256;-82
2022/10/03 06:29:55;;;;;;;10.27;7.50;;;;;;;8.51;100.00;100158.78;4987651;28;20242;-82
2022/10/03 06:33:16;;;;;;;13.17;8.50;;;;;;;8.43;100.00;100152.09;4989217;28;20681;-82
2022/10/03 06:36:06;;;;;;;12.17;8.97;;;;;;;8.55;100.00;100151.59;4989558;28;20218;-82
2022/10/03 06:39:26;;;;;;;13.93;10.20;;;;;;;8.58;100.00;100154.97;5022155;28;20231;-82
2022/10/03 06:42:27;;;;;;;19.97;12.23;;;;;;;8.41;100.00;100146.03;5048743;28;20208;-82
2022/10/03 06:45:24;;;;;;;11.50;9.33;;;;;;;8.32;100.00;100145.41;5113486;27;20229;-84
2022/10/03 06:48:16;;;;;;;12.93;8.10;;;;;;;8.47;100.00;100149.25;5117541;27;20195;-82
2022/10/03 06:50:54;;;;;;;12.30;9.07;;;;;;;8.57;100.00;100149.75;5109138;28;20245;-82
2022/10/03 06:53:38;;;;;;;12.10;8.80;;;;;;;8.74;100.00;100152.59;5106943;28;20222;-83
2022/10/03 06:56:50;;;;;;;15.57;9.80;;;;;;;8.86;100.00;100162.63;5109908;28;20230;-82
2022/10/03 06:59:57;;;;;;;13.47;9.53;;;;;;;9.05;100.00;100168.03;5111388;27;20211;-82
2022/10/03 07:02:51;;;;;;;12.73;10.00;;;;;;;9.04;100.00;100155.75;5084848;28;20674;-83
2022/10/03 07:05:52;;;;;;;14.40;10.07;;;;;;;9.23;100.00;100169.03;5108237;28;20237;-82
2022/10/03 07:08:58;;;;;;;15.23;9.00;;;;;;;8.98;100.00;100166.59;5095738;28;20244;-82
2022/10/03 07:12:05;;;;;;;20.70;10.33;;;;;;;9.35;100.00;100183.53;5112965;28;20194;-83
2022/10/03 07:15:16;;;;;;;14.47;10.30;;;;;;;9.64;100.00;100187.56;5099198;28;20202;-82
2022/10/03 07:18:12;;;;;;;19.87;11.27;;;;;;;9.87;100.00;100189.22;5114824;28;20190;-82
2022/10/03 07:21:13;;;;;;;19.97;11.57;;;;;;;10.20;100.00;100185.03;5112973;28;20195;-83
2022/10/03 07:24:08;;;;;;;17.43;10.90;;;;;;;10.18;100.00;100192.19;5008531;28;20239;-82
2022/10/03 07:27:08;;;;;;;17.70;10.57;;;;;;;10.34;100.00;100194.19;5031273;28;20222;-83
2022/10/03 07:30:04;;;;;;;21.07;11.20;;;;;;;10.61;100.00;100198.16;5026362;28;20229;-82
2022/10/03 07:33:23;;;;;;;18.57;11.03;;;;;;;10.72;100.00;100200.31;5037062;28;20264;-83
2022/10/03 07:39:41;;;;;;;19.77;11.30;;;;;;;10.97;100.00;100207.94;4968139;28;20249;-82
2022/10/03 07:42:40;;;;;;;24.43;12.10;;;;;;;11.07;100.00;100206.53;4995475;28;20229;-82
2022/10/03 07:45:33;;;;;;;22.33;12.17;;;;;;;11.33;100.00;100202.59;4972380;28;20200;-82
2022/10/03 07:48:52;;;;;;;21.33;12.73;;;;;;;11.52;100.00;100207.84;4968741;28;20200;-83
2022/10/03 07:51:24;;;;;;;21.00;12.37;;;;;;;11.66;100.00;100211.50;4968551;28;20200;-82
2022/10/03 07:54:40;;;;;;;23.80;13.73;;;;;;;11.03;100.00;100207.66;4983961;28;20295;-83
2022/10/03 07:57:36;;;;;;;21.57;13.43;;;;;;;11.36;100.00;100219.22;4990369;28;20237;-81
2022/10/03 08:00:21;;;;;;;25.37;13.30;;;;;;;11.61;100.00;100224.16;5028460;28;20250;-81
2022/10/03 08:03:34;;;;;;;24.07;13.97;;;;;;;11.21;100.00;100225.31;5066387;28;20338;-82
2022/10/03 08:06:23;;;;;;;24.77;13.20;;;;;;;11.47;100.00;100222.19;5067968;28;20228;-83
2022/10/03 08:09:08;;;;;;;23.63;14.17;;;;;;;11.45;100.00;100226.72;5072923;28;20196;-82
2022/10/03 08:12:13;;;;;;;22.13;13.33;;;;;;;11.69;100.00;100229.06;5112217;28;20187;-82
2022/10/03 08:14:53;;;;;;;24.33;13.63;;;;;;;11.83;100.00;100231.03;5113896;28;20190;-82
2022/10/03 08:18:13;;;;;;;25.10;14.23;;;;;;;11.95;100.00;100239.22;5111788;28;20203;-82
2022/10/03 08:20:51;;;;;;;23.60;14.00;;;;;;;11.96;100.00;100234.75;5053646;28;20196;-82
2022/10/03 08:23:53;;;;;;;25.33;13.07;;;;;;;11.97;100.00;100237.34;5107549;28;20213;-82
2022/10/03 08:26:43;;;;;;;24.73;12.57;;;;;;;12.18;100.00;100227.38;5113545;28;20217;-82
2022/10/03 08:29:28;;;;;;;23.50;12.60;;;;;;;12.31;100.00;100236.41;5107613;28;20244;-82
2022/10/03 08:32:38;;;;;;;28.17;13.87;;;;;;;12.40;100.00;100236.84;5105815;28;20202;-82
2022/10/03 08:35:42;;;;;;;25.63;11.80;;;;;;;12.54;100.00;100236.94;5113280;28;20202;-82
2022/10/03 08:38:42;;;;;;;22.67;12.37;;;;;;;12.28;100.00;100231.28;5101665;28;20191;-82
2022/10/03 08:42:00;;;;;;;23.63;14.97;;;;;;;12.21;100.00;100219.25;5113052;28;20225;-82
2022/10/03 08:45:20;;;;;;;24.13;12.73;;;;;;;12.29;100.00;100226.81;5110643;28;20225;-82
2022/10/03 08:48:26;;;;;;;21.23;11.70;;;;;;;12.35;100.00;100231.78;5070943;28;20235;-82
2022/10/03 08:51:34;;;;;;;21.80;13.07;;;;;;;12.43;100.00;100231.38;5069088;28;20196;-82
2022/10/03 08:54:22;;;;;;;18.40;11.67;;;;;;;12.25;100.00;100220.78;5071394;28;20223;-81
2022/10/03 08:57:14;;;;;;;22.87;11.47;;;;;;;12.73;100.00;100216.38;5072159;28;20203;-82
2022/10/03 09:00:04;;;;;;;24.00;12.77;;;;;;;12.81;100.00;100210.63;5102499;28;20201;-81
2022/10/03 09:03:17;;;;;;;18.20;10.77;;;;;;;13.11;100.00;100210.69;5117084;28;20191;-82
2022/10/03 09:06:36;;;;;;;18.50;10.13;;;;;;;12.75;100.00;100203.88;5116541;28;20234;-82
2022/10/03 09:09:52;;;;;;;19.40;9.93;;;;;;;13.01;100.00;100204.19;5116794;28;20199;-82
2022/10/03 09:12:41;;;;;;;26.10;11.13;;;;;;;13.16;100.00;100209.50;5115765;28;20212;-82
2022/10/03 09:15:41;;;;;;;15.93;9.10;;;;;;;13.09;100.00;100202.81;5114590;28;20201;-82
2022/10/03 09:18:43;;;;;;;16.03;8.57;;;;;;;13.57;100.00;100202.72;5050139;28;20276;-82
2022/10/03 09:21:48;;;;;;;19.83;8.73;;;;;;;13.82;100.00;100192.31;5116698;27;20198;-82
2022/10/03 09:24:54;;;;;;;15.90;8.13;;;;;;;13.91;100.00;100196.25;5132790;27;20230;-82
2022/10/03 09:27:42;;;;;;;15.10;8.63;;;;;;;13.96;100.00;100194.13;5129347;27;20294;-82
2022/10/03 09:30:41;;;;;;;15.00;8.23;;;;;;;14.06;100.00;100189.09;5128749;27;20214;-81
2022/10/03 09:33:44;;;;;;;11.23;6.10;;;;;;;14.17;100.00;100187.47;5129353;27;20243;-82
2022/10/03 09:36:49;;;;;;;16.07;6.77;;;;;;;14.22;100.00;100176.53;5132038;27;20190;-82
2022/10/03 09:40:02;;;;;;;13.10;6.80;;;;;;;14.29;100.00;100181.41;5130140;27;20239;-83
2022/10/03 09:43:07;;;;;;;9.63;6.37;;;;;;;13.67;100.00;100182.59;5023101;28;20288;-82
2022/10/03 09:46:03;;;;;;;11.70;6.80;;;;;;;14.32;100.00;100175.00;5001697;28;20284;-82
2022/10/03 09:48:59;;;;;;;11.70;6.63;;;;;;;14.72;100.00;100172.47;5008894;28;20237;-83
2022/10/03 09:51:47;;;;;;;15.33;7.23;;;;;;;14.63;100.00;100178.41;4995472;28;20260;-83
2022/10/03 09:54:50;;;;;;;13.30;6.90;;;;;;;14.59;100.00;100172.44;5004404;28;20225;-82
2022/10/03 09:57:48;;;;;;;17.20;6.60;;;;;;;14.67;100.00;100174.56;5005927;28;20277;-82
2022/10/03 10:00:26;;;;;;;11.53;6.87;;;;;;;14.57;100.00;100182.31;5008207;28;20333;-82
2022/10/03 10:03:30;;;;;;;11.13;6.17;;;;;;;14.09;100.00;100178.22;5008117;28;20277;-82
2022/10/03 10:06:34;;;;;;;8.43;5.10;;;;;;;14.09;100.00;100170.25;5011448;28;20318;-82
2022/10/03 10:09:40;;;;;;;10.13;5.67;;;;;;;14.53;100.00;100173.66;4958099;28;20222;-82
2022/10/03 10:12:53;;;;;;;10.93;4.57;;;;;;;14.69;100.00;100176.22;4970040;28;20206;-82
2022/10/03 10:16:07;;;;;;;11.83;5.10;;;;;;;14.76;100.00;100165.97;5070073;28;20196;-82
2022/10/03 10:19:21;;;;;;;8.90;5.33;;;;;;;14.98;100.00;100166.31;5071234;28;20264;-82
2022/10/03 10:22:11;;;;;;;26.47;19.37;;;;;;;14.27;100.00;100169.09;5053030;28;20205;-82
2022/10/03 10:25:23;;;;;;;26.87;19.63;;;;;;;14.25;100.00;100163.88;5046981;28;20231;-83
2022/10/03 10:28:33;;;;;;;39.90;20.63;;;;;;;14.51;100.00;100164.06;5085927;28;20371;-82
2022/10/03 10:31:43;;;;;;;41.63;33.60;;;;;;;14.27;100.00;100158.44;5068154;28;20317;-82
2022/10/03 10:34:51;;;;;;;14.10;8.13;;;;;;;14.01;100.00;100158.28;5059952;28;20227;-81
2022/10/03 10:37:53;;;;;;;8.47;4.30;;;;;;;14.13;100.00;100151.31;5072584;28;20197;-82
2022/10/03 10:41:00;;;;;;;12.17;5.63;;;;;;;13.93;100.00;100147.25;5078148;28;20200;-82
2022/10/03 10:44:04;;;;;;;8.90;4.27;;;;;;;14.28;100.00;100157.47;5092464;28;20223;-82
2022/10/03 10:46:57;;;;;;;6.50;4.03;;;;;;;14.13;100.00;100147.81;5087443;28;20244;-81
2022/10/03 10:50:12;;;;;;;8.80;4.70;;;;;;;14.50;100.00;100147.22;5037278;28;20214;-82
2022/10/03 10:53:16;;;;;;;6.43;4.23;;;;;;;14.25;100.00;100145.22;5103429;28;20195;-82
2022/10/03 10:56:14;;;;;;;6.60;4.90;;;;;;;14.47;100.00;100144.72;5098827;28;20194;-81
2022/10/03 10:59:18;;;;;;;7.97;3.50;;;;;;;14.54;100.00;100151.38;5110220;28;20233;-83
2022/10/03 11:02:28;;;;;;;7.60;3.70;;;;;;;14.83;100.00;100151.28;5099366;28;20202;-81
2022/10/03 11:05:34;;;;;;;18.60;13.67;;;;;;;14.99;100.00;100143.16;5114577;28;20219;-83
2022/10/03 11:08:53;;;;;;;6.50;3.57;;;;;;;14.69;100.00;100151.34;5112416;28;20219;-81
2022/10/03 11:12:16;;;;;;;10.67;4.30;;;;;;;14.55;100.00;100150.41;5119557;27;20206;-81
2022/10/03 11:15:25;;;;;;;7.13;3.40;;;;;;;14.68;100.00;100141.66;5045237;28;20220;-83
2022/10/03 11:18:23;;;;;;;5.67;3.03;;;;;;;14.50;100.00;100136.53;5049310;28;20224;-82
2022/10/03 11:21:33;;;;;;;9.10;3.13;;;;;;;14.52;100.00;100134.63;5044042;28;20201;-81
2022/10/03 11:24:31;;;;;;;8.80;3.13;;;;;;;14.83;100.00;100124.63;5032098;28;20248;-81
2022/10/03 11:27:42;;;;;;;10.33;4.97;;;;;;;14.71;100.00;100120.09;5028965;28;20201;-82
2022/10/03 11:30:57;;;;;;;6.87;3.13;;;;;;;15.34;100.00;100114.06;5029888;28;20213;-81
2022/10/03 11:33:51;;;;;;;5.03;2.10;;;;;;;16.27;100.00;100108.38;5070169;28;20397;-82
2022/10/03 11:36:56;;;;;;;6.70;2.77;;;;;;;16.51;100.00;100099.56;5059769;28;20225;-81
2022/10/03 11:39:33;;;;;;;5.43;2.73;;;;;;;16.35;100.00;100098.97;5042068;28;20252;-81
2022/10/03 11:42:11;;;;;;;8.23;2.37;;;;;;;16.96;100.00;100100.66;5097774;28;20202;-82
2022/10/03 11:44:49;;;;;;;4.73;2.03;;;;;;;17.41;100.00;100100.78;5106174;28;20203;-83
2022/10/03 11:47:43;;;;;;;4.40;2.23;;;;;;;16.40;100.00;100092.28;5106297;28;20225;-84
2022/10/03 11:50:48;;;;;;;7.47;2.30;;;;;;;16.86;100.00;100099.63;5114794;27;20237;-83
2022/10/03 11:53:48;;;;;;;6.93;1.90;;;;;;;16.54;100.00;100097.50;5081024;28;20208;-83
2022/10/03 11:56:29;;;;;;;5.00;2.10;;;;;;;16.65;100.00;100098.53;5089282;28;20262;-84
2022/10/03 11:59:29;;;;;;;5.47;1.77;;;;;;;17.19;100.00;100092.72;5090537;28;20192;-83
2022/10/03 12:02:23;;;;;;;5.70;1.87;;;;;;;18.09;100.00;100085.66;5074612;28;20203;-82
2022/10/03 12:04:59;;;;;;;4.53;1.90;;;;;;;17.87;100.00;100086.50;5084483;28;20229;-82
2022/10/03 12:10:55;;;;;;;5.40;2.13;;;;;;;16.34;100.00;100082.06;5033726;28;20671;-81
2022/10/03 12:13:38;;;;;;;3.60;1.70;;;;;;;17.20;100.00;100081.03;5048921;28;20189;-82
2022/10/03 12:16:26;;;;;;;4.83;2.03;;;;;;;17.40;100.00;100077.66;5048064;28;20243;-81
2022/10/03 12:19:16;;;;;;;7.17;1.90;;;;;;;17.84;100.00;100074.19;5051119;28;20189;-81
2022/10/03 12:21:53;;;;;;;5.97;1.97;;;;;;;17.76;100.00;100073.97;5048438;28;20193;-81
2022/10/03 12:24:26;;;;;;;5.93;1.80;;;;;;;17.93;100.00;100072.59;5050964;28;20184;-82
2022/10/03 12:27:07;;;;;;;3.63;1.87;;;;;;;17.96;100.00;100072.38;5050650;28;20193;-81
2022/10/03 12:29:41;;;;;;;3.67;1.93;;;;;;;18.03;100.00;100084.28;5054569;28;20239;-81
2022/10/03 12:32:24;;;;;;;4.53;2.00;;;;;;;17.49;100.00;100084.13;5052462;28;20184;-81
2022/10/03 12:35:06;;;;;;;5.23;2.00;;;;;;;17.69;100.00;100065.56;5052109;28;20193;-81
2022/10/03 12:37:46;;;;;;;4.33;1.70;;;;;;;17.74;100.00;100074.06;5052629;28;20244;-81
2022/10/03 12:40:23;;;;;;;5.23;2.47;;;;;;;17.73;100.00;100069.69;5054726;28;20196;-82
2022/10/03 12:43:08;;;;;;;5.83;2.33;;;;;;;17.81;100.00;100063.72;5111822;28;20228;-81
2022/10/03 12:45:42;;;;;;;6.20;2.33;;;;;;;17.80;100.00;100061.16;5110486;28;20232;-82
2022/10/03 12:48:34;;;;;;;4.43;2.23;;;;;;;17.75;100.00;100058.84;5113071;28;20218;-80
2022/10/03 12:51:20;;;;;;;4.00;1.97;;;;;;;17.69;100.00;100051.28;5117493;28;20191;-83
2022/10/03 12:54:04;;;;;;;4.53;2.27;;;;;;;17.82;100.00;100051.16;5073043;28;20238;-83
2022/10/03 12:56:45;;;;;;;5.00;1.77;;;;;;;17.73;100.00;100053.59;5024664;28;20250;-83
2022/10/03 12:59:34;;;;;;;5.07;2.20;;;;;;;17.74;100.00;100063.34;5068699;28;20204;-81
2022/10/03 13:02:25;;;;;;;5.03;2.30;;;;;;;18.58;99.23;100061.88;5051010;28;20197;-84
2022/10/03 13:05:22;;;;;;;3.90;2.10;;;;;;;18.42;94.81;100061.44;5024551;28;20252;-83
2022/10/03 13:08:00;;;;;;;4.40;2.50;;;;;;;18.48;100.00;100055.56;5012344;28;20236;-84
2022/10/03 13:10:38;;;;;;;4.80;1.90;;;;;;;17.75;100.00;100061.50;4947999;28;20214;-84
2022/10/03 13:13:25;;;;;;;6.70;2.27;;;;;;;18.42;100.00;100060.59;5045660;28;20647;-84
2022/10/03 13:16:18;;;;;;;3.80;2.00;;;;;;;18.17;100.00;100062.59;5008355;28;20199;-83
2022/10/03 13:18:56;;;;;;;7.60;2.10;;;;;;;18.01;100.00;100049.56;5007641;28;20282;-83
2022/10/03 13:22:02;;;;;;;8.47;2.80;;;;;;;17.90;100.00;100046.91;4991386;28;20210;-83
2022/10/03 13:24:39;;;;;;;5.30;2.50;;;;;;;18.06;100.00;100045.69;5054633;28;20196;-82
2022/10/03 13:27:31;;;;;;;5.47;2.43;;;;;;;18.18;100.00;100048.22;5052113;28;20289;-82